^^
Station Historical Data
Daily Summary for May 4, 2021 Units:  English    Metric   Both
Daily Weekly Monthly Yearly
  High: Low: Average:
Temperature: 57.1 °F 46.7 °F 50.4 °F
Dew Point: 55.7 °F 42.6 °F 47.9 °F
Humidity: 96% 80% 91%
Wind Speed: 9mph 0mph 1.7mph
Wind Gust: 10mph - -
Wind- - SW
Pressure: 29.82 in 29.53 in -
Precipitation: 0.24 in    
 
 
Tabular Data for May 4, 2021
Time Temperature Dew Point Pressure Wind Wind Speed Wind Gust Humidity Rainfall Rate (Hourly) solar
00:00 48.1 °F 46.5 °F 29.60 in Calm     94% 0.00 in 0 W/m2
00:05 48.1 °F 46.5 °F 29.60 in Calm     94% 0.00 in 0 W/m2
00:10 48.2 °F 46.6 °F 29.60 in Calm     94% 0.00 in 0 W/m2
00:15 48.3 °F 46.7 °F 29.60 in Calm     94% 0.00 in 0 W/m2
00:20 48.4 °F 46.8 °F 29.60 in Calm     94% 0.00 in 0 W/m2
00:25 48.5 °F 46.9 °F 29.60 in Calm   2 mph 94% 0.00 in 0 W/m2
00:30 48.7 °F 47.1 °F 29.61 in NW 1 mph 1 mph 94% 0.00 in 0 W/m2
00:35 48.9 °F 47.2 °F 29.60 in NW 1 mph 2 mph 94% 0.00 in 0 W/m2
00:40 49 °F 47.3 °F 29.60 in North 1 mph 1 mph 94% 0.00 in 0 W/m2
00:45 49.1 °F 47.4 °F 29.59 in North 1 mph 1 mph 94% 0.00 in 0 W/m2
00:50 49 °F 47.3 °F 29.59 in North 1 mph 2 mph 94% 0.00 in 0 W/m2
00:55 48.9 °F 47.2 °F 29.59 in North 2 mph 2 mph 94% 0.00 in 0 W/m2
01:00 48.8 °F 47.2 °F 29.59 in North 2 mph 3 mph 94% 0.00 in 0 W/m2
01:05 48.6 °F 47 °F 29.59 in North 1 mph 3 mph 94% 0.00 in 0 W/m2
01:10 48.4 °F 46.8 °F 29.59 in North 1 mph 1 mph 94% 0.00 in 0 W/m2
01:15 48.4 °F 46.8 °F 29.58 in North 1 mph 1 mph 94% 0.00 in 0 W/m2
01:20 48.3 °F 46.7 °F 29.58 in North 1 mph 1 mph 94% 0.00 in 0 W/m2
01:25 48.4 °F 46.8 °F 29.58 in North 1 mph 1 mph 94% 0.00 in 0 W/m2
01:30 48.5 °F 46.9 °F 29.57 in NNE 1 mph 1 mph 94% 0.00 in 0 W/m2
01:35 48.5 °F 46.9 °F 29.57 in NNE 1 mph 1 mph 94% 0.00 in 0 W/m2
01:40 48.7 °F 47.1 °F 29.57 in NNE 1 mph 1 mph 94% 0.00 in 0 W/m2
01:45 48.8 °F 47.2 °F 29.58 in North 1 mph 2 mph 94% 0.00 in 0 W/m2
01:50 48.8 °F 47.2 °F 29.58 in North 1 mph 1 mph 94% 0.00 in 0 W/m2
01:55 48.8 °F 47.2 °F 29.57 in North 1 mph 1 mph 94% 0.00 in 0 W/m2
02:00 49 °F 47.3 °F 29.58 in Calm   1 mph 94% 0.00 in 0 W/m2
02:05 49 °F 47.3 °F 29.58 in Calm   1 mph 94% 0.00 in 0 W/m2
02:10 49.1 °F 47.4 °F 29.57 in Calm   1 mph 94% 0.00 in 0 W/m2
02:15 49.2 °F 47.5 °F 29.57 in Calm   1 mph 94% 0.00 in 0 W/m2
02:20 49.2 °F 47.5 °F 29.57 in North 1 mph 1 mph 94% 0.00 in 0 W/m2
02:25 49.2 °F 47.5 °F 29.57 in North 1 mph 1 mph 94% 0.00 in 0 W/m2
02:30 49.2 °F 47.5 °F 29.57 in North 1 mph 1 mph 94% 0.00 in 0 W/m2
02:35 49.2 °F 47.5 °F 29.57 in North 1 mph 1 mph 94% 0.00 in 0 W/m2
02:40 49.2 °F 47.5 °F 29.56 in North 1 mph 2 mph 94% 0.00 in 0 W/m2
02:45 49.2 °F 47.5 °F 29.57 in North 1 mph 2 mph 94% 0.00 in 0 W/m2
02:50 49.2 °F 47.5 °F 29.57 in North 1 mph 1 mph 94% 0.00 in 0 W/m2
02:55 49.3 °F 47.6 °F 29.57 in North 1 mph 1 mph 94% 0.00 in 0 W/m2
03:00 49.2 °F 47.5 °F 29.57 in North 1 mph 1 mph 94% 0.00 in 0 W/m2
03:05 49.2 °F 47.5 °F 29.56 in North 1 mph 1 mph 94% 0.00 in 0 W/m2
03:10 49.3 °F 47.6 °F 29.56 in North 1 mph 1 mph 94% 0.00 in 0 W/m2
03:15 49.2 °F 47.5 °F 29.56 in North 1 mph 1 mph 94% 0.00 in 0 W/m2
03:20 49.2 °F 47.5 °F 29.56 in North 1 mph 1 mph 94% 0.00 in 0 W/m2
03:25 49.2 °F 47.5 °F 29.55 in North 1 mph 1 mph 94% 0.00 in 0 W/m2
03:30 49.2 °F 47.5 °F 29.55 in North 1 mph 1 mph 94% 0.00 in 0 W/m2
03:35 49.3 °F 47.6 °F 29.55 in North 1 mph 2 mph 94% 0.00 in 0 W/m2
03:40 49.4 °F 47.7 °F 29.56 in North 1 mph 2 mph 94% 0.00 in 0 W/m2
03:45 49.4 °F 47.7 °F 29.56 in North 1 mph 2 mph 94% 0.00 in 0 W/m2
03:50 49.5 °F 47.8 °F 29.56 in North 1 mph 1 mph 94% 0.00 in 0 W/m2
03:55 49.6 °F 47.9 °F 29.56 in Calm   1 mph 94% 0.00 in 0 W/m2
04:00 49.6 °F 47.9 °F 29.56 in Calm   1 mph 94% 0.00 in 0 W/m2
04:05 49.6 °F 47.9 °F 29.56 in Calm   2 mph 94% 0.00 in 0 W/m2
04:10 49.7 °F 48 °F 29.56 in North 1 mph 1 mph 94% 0.04 in 0 W/m2
04:15 49.7 °F 48 °F 29.56 in North 1 mph 1 mph 94% 0.12 in 0 W/m2
04:20 49.6 °F 47.9 °F 29.56 in Calm     94% 0.14 in 0 W/m2
04:25 49.6 °F 47.9 °F 29.55 in Calm     94% 0.07 in 0 W/m2
04:30 49.5 °F 47.8 °F 29.55 in Calm   1 mph 94% 0.07 in 0 W/m2
04:35 49.6 °F 47.9 °F 29.55 in Calm   1 mph 94% 0.06 in 0 W/m2
04:40 49.6 °F 47.9 °F 29.55 in North 1 mph 2 mph 94% 0.05 in 0 W/m2
04:45 49.6 °F 47.9 °F 29.55 in North 1 mph 2 mph 94% 0.05 in 0 W/m2
04:50 49.6 °F 47.9 °F 29.55 in North 1 mph 1 mph 94% 0.05 in 0 W/m2
04:55 49.6 °F 47.9 °F 29.55 in North 1 mph 1 mph 94% 0.00 in 0 W/m2
05:00 49.6 °F 47.9 °F 29.55 in North 1 mph 1 mph 94% 0.00 in 0 W/m2
05:05 49.7 °F 48 °F 29.55 in North 1 mph 1 mph 94% 0.00 in 0 W/m2
05:10 49.7 °F 48 °F 29.54 in North 1 mph 1 mph 94% 0.44 in 0 W/m2
05:15 49.8 °F 48.1 °F 29.54 in North 1 mph 1 mph 94% 0.49 in 0 W/m2
05:20 49.9 °F 48.2 °F 29.54 in North 1 mph 1 mph 94% 0.13 in 0 W/m2
05:25 49.9 °F 48.2 °F 29.54 in Calm   1 mph 94% 0.09 in 0 W/m2
05:30 50 °F 48.3 °F 29.53 in Calm   1 mph 94% 0.08 in 0 W/m2
05:35 50.1 °F 48.4 °F 29.54 in North 1 mph 1 mph 94% 0.06 in 0 W/m2
05:40 50.2 °F 48.5 °F 29.53 in North 1 mph 2 mph 94% 0.06 in 0 W/m2
05:45 50.3 °F 48.6 °F 29.53 in North 1 mph 2 mph 94% 0.05 in 0 W/m2
05:50 50.3 °F 48.6 °F 29.53 in North 1 mph 2 mph 94% 0.04 in 0 W/m2
05:55 50.2 °F 48.5 °F 29.53 in North 1 mph 2 mph 94% 0.13 in 0 W/m2
06:00 50.2 °F 48.5 °F 29.53 in North 1 mph 1 mph 94% 0.13 in 0 W/m2
06:05 50.2 °F 48.5 °F 29.53 in North 1 mph 1 mph 94% 0.11 in 0 W/m2
06:10 50.2 °F 48.5 °F 29.53 in WNW 1 mph 1 mph 94% 0.14 in 0 W/m2
06:15 50.5 °F 49.1 °F 29.53 in WNW 1 mph 2 mph 95% 0.07 in 0 W/m2
06:20 51.4 °F 50 °F 29.53 in SE 1 mph 1 mph 95% 0.05 in 0 W/m2
06:25 52.2 °F 50.8 °F 29.53 in West 2 mph 2 mph 95% 0.00 in 0 W/m2
06:30 53.9 °F 52.5 °F 29.53 in West 1 mph 2 mph 95% 0.00 in 0 W/m2
06:35 55.1 °F 54 °F 29.55 in West 1 mph 2 mph 96% 0.00 in 0 W/m2
06:40 55.5 °F 54.1 °F 29.54 in WSW 1 mph 2 mph 95% 0.00 in 0 W/m2
06:45 56.4 °F 55.3 °F 29.54 in NW 1 mph 5 mph 96% 0.00 in 0 W/m2
06:50 56.8 °F 55.4 °F 29.55 in NNW 2 mph 2 mph 95% 0.00 in 5 W/m2
06:55 57.1 °F 55.7 °F 29.55 in NNW 2 mph 2 mph 95% 0.00 in 5 W/m2
07:00 57.1 °F 55.7 °F 29.54 in ENE 1 mph 1 mph 95% 0.00 in 9 W/m2
07:05 57 °F 55.6 °F 29.54 in ENE 1 mph 1 mph 95% 0.00 in 7 W/m2
07:10 57 °F 55.6 °F 29.54 in NE 1 mph 1 mph 95% 0.00 in 7 W/m2
07:15 56.7 °F 55.3 °F 29.54 in NE 1 mph 1 mph 95% 0.00 in 18 W/m2
07:20 56.1 °F 54.4 °F 29.55 in NNW 1 mph 2 mph 94% 0.00 in 11 W/m2
07:25 55.3 °F 53.6 °F 29.55 in NW 2 mph 2 mph 94% 0.00 in 12 W/m2
07:30 54.8 °F 53.1 °F 29.55 in NW 1 mph 2 mph 94% 0.00 in 16 W/m2
07:35 54.3 °F 52.6 °F 29.55 in NW 1 mph 3 mph 94% 0.00 in 21 W/m2
07:40 53.3 °F 51.6 °F 29.56 in NNW 3 mph 6 mph 94% 0.00 in 26 W/m2
07:45 52 °F 50 °F 29.56 in NNW 4 mph 6 mph 93% 0.00 in 18 W/m2
07:50 51.1 °F 49.1 °F 29.56 in NW 4 mph 4 mph 93% 0.00 in 12 W/m2
08:00 49.5 °F 47.6 °F 29.56 in North 3 mph 3 mph 93% 0.00 in 16 W/m2
08:05 49.1 °F 47.4 °F 29.57 in NNW 4 mph 4 mph 94% 0.00 in 16 W/m2
08:10 48.8 °F 47.2 °F 29.57 in North 4 mph 5 mph 94% 0.00 in 19 W/m2
08:15 48.5 °F 46.9 °F 29.57 in NNW 4 mph 5 mph 94% 0.00 in 23 W/m2
08:20 48.3 °F 46.7 °F 29.58 in North 4 mph 6 mph 94% 0.00 in 25 W/m2
08:25 48 °F 46.4 °F 29.58 in NNW 4 mph 6 mph 94% 0.00 in 21 W/m2
08:30 47.8 °F 46.2 °F 29.58 in North 4 mph 4 mph 94% 0.08 in 23 W/m2
08:35 47.6 °F 46 °F 29.58 in NNW 4 mph 4 mph 94% 0.08 in 30 W/m2
08:40 47.7 °F 46.1 °F 29.58 in North 3 mph 3 mph 94% 0.06 in 44 W/m2
08:45 47.7 °F 46.1 °F 29.57 in NNW 3 mph 5 mph 94% 0.04 in 25 W/m2
08:50 47.5 °F 45.9 °F 29.58 in NNW 4 mph 4 mph 94% 0.00 in 25 W/m2
08:55 47.4 °F 45.8 °F 29.58 in NW 4 mph 4 mph 94% 0.00 in 47 W/m2
09:00 47.2 °F 45.6 °F 29.59 in North 5 mph 8 mph 94% 0.00 in 83 W/m2
09:05 47 °F 45.4 °F 29.59 in WNW 5 mph 8 mph 94% 0.00 in 51 W/m2
09:10 46.8 °F 45.2 °F 29.59 in NNW 5 mph 5 mph 94% 0.00 in 54 W/m2
09:15 46.7 °F 45.1 °F 29.60 in NNW 4 mph 5 mph 94% 0.00 in 35 W/m2
09:20 46.8 °F 45.2 °F 29.60 in NNW 4 mph 4 mph 94% 0.00 in 37 W/m2
09:25 46.9 °F 45.3 °F 29.60 in NW 4 mph 5 mph 94% 0.00 in 53 W/m2
09:30 46.9 °F 45.3 °F 29.60 in North 3 mph 3 mph 94% 0.00 in 67 W/m2
09:35 47.1 °F 45.5 °F 29.61 in NNW 3 mph 5 mph 94% 0.00 in 56 W/m2
09:40 47.4 °F 45.8 °F 29.60 in North 3 mph 4 mph 94% 0.00 in 54 W/m2
09:45 47.6 °F 46 °F 29.60 in NW 3 mph 4 mph 94% 0.00 in 54 W/m2
09:50 47.9 °F 46.3 °F 29.61 in NNW 2 mph 3 mph 94% 0.00 in 90 W/m2
09:55 48.1 °F 46.5 °F 29.61 in NNW 1 mph 3 mph 94% 0.00 in 69 W/m2
10:00 48.4 °F 47 °F 29.61 in NNW 1 mph 2 mph 95% 0.00 in 65 W/m2
10:05 48.5 °F 47.1 °F 29.61 in NNW 1 mph 2 mph 95% 0.00 in 63 W/m2
10:10 48.9 °F 47.2 °F 29.61 in North 1 mph 1 mph 94% 0.00 in 105 W/m2
10:15 49.1 °F 47.7 °F 29.61 in NW 1 mph 1 mph 95% 0.00 in 118 W/m2
10:20 49.3 °F 47.6 °F 29.61 in NNW 1 mph 2 mph 94% 0.00 in 116 W/m2
10:25 49.4 °F 47.7 °F 29.61 in NNW 2 mph 3 mph 94% 0.00 in 107 W/m2
10:30 49.7 °F 48.3 °F 29.61 in NNW 1 mph 1 mph 95% 0.00 in 118 W/m2
10:35 49.8 °F 48.4 °F 29.61 in NNW 1 mph 1 mph 95% 0.00 in 127 W/m2
10:40 50 °F 48.6 °F 29.61 in NNW 1 mph 1 mph 95% 0.00 in 132 W/m2
10:45 50.3 °F 48.9 °F 29.62 in NW 1 mph 1 mph 95% 0.00 in 139 W/m2
10:50 50.5 °F 49.1 °F 29.62 in NW 2 mph 2 mph 95% 0.00 in 123 W/m2
10:55 50.6 °F 49.2 °F 29.62 in NNW 1 mph 2 mph 95% 0.00 in 127 W/m2
11:00 50.8 °F 49.4 °F 29.63 in NNW 1 mph 2 mph 95% 0.00 in 116 W/m2
11:05 50.9 °F 49.5 °F 29.63 in NNW 1 mph 2 mph 95% 0.00 in 130 W/m2
11:10 51 °F 49.6 °F 29.63 in NNW 1 mph 1 mph 95% 0.00 in 162 W/m2
11:15 51.1 °F 49.7 °F 29.64 in NNW 1 mph 1 mph 95% 0.00 in 167 W/m2
11:20 51.3 °F 49.9 °F 29.64 in NW 1 mph 2 mph 95% 0.00 in 162 W/m2
11:25 51.3 °F 49.9 °F 29.64 in WNW 2 mph 2 mph 95% 0.00 in 125 W/m2
11:30 51.3 °F 49.6 °F 29.65 in NW 3 mph 3 mph 94% 0.00 in 135 W/m2
11:35 51.4 °F 49.7 °F 29.64 in NW 2 mph 3 mph 94% 0.00 in 139 W/m2
11:40 51.4 °F 49.7 °F 29.64 in NW 2 mph 2 mph 94% 0.00 in 137 W/m2
11:45 51.5 °F 49.8 °F 29.65 in NW 1 mph 2 mph 94% 0.00 in 142 W/m2
11:50 51.5 °F 50.1 °F 29.64 in NNW 1 mph 5 mph 95% 0.00 in 144 W/m2
11:55 51.5 °F 50.1 °F 29.65 in NNW 2 mph 5 mph 95% 0.00 in 232 W/m2
12:00 51.6 °F 50.2 °F 29.65 in NNW 2 mph 2 mph 95% 0.00 in 211 W/m2
12:05 51.7 °F 50.3 °F 29.65 in NNW 1 mph 2 mph 95% 0.00 in 292 W/m2
12:10 52 °F 50.6 °F 29.66 in NNW 1 mph 1 mph 95% 0.00 in 339 W/m2
12:15 52.2 °F 50.8 °F 29.66 in NNW 1 mph 1 mph 95% 0.00 in 357 W/m2
12:20 52.6 °F 51.2 °F 29.66 in NNW 1 mph 1 mph 95% 0.00 in 397 W/m2
12:25 53 °F 51.6 °F 29.66 in NW 1 mph 1 mph 95% 0.00 in 366 W/m2
12:30 53.5 °F 52.1 °F 29.66 in Calm     95% 0.00 in 322 W/m2
12:35 53.6 °F 52.2 °F 29.65 in Calm   1 mph 95% 0.00 in 283 W/m2
12:40 53.7 °F 52.3 °F 29.65 in Calm     95% 0.00 in 290 W/m2
12:45 53.6 °F 51.9 °F 29.66 in West 1 mph 1 mph 94% 0.00 in 272 W/m2
12:50 53.6 °F 51.9 °F 29.65 in West 1 mph 1 mph 94% 0.00 in 232 W/m2
12:55 53.6 °F 51.9 °F 29.65 in Calm   1 mph 94% 0.00 in 325 W/m2
13:00 53.7 °F 52 °F 29.65 in Calm     94% 0.00 in 229 W/m2
13:05 53.7 °F 52 °F 29.65 in Calm     94% 0.00 in 183 W/m2
13:10 53.7 °F 52 °F 29.65 in Calm   1 mph 94% 0.00 in 213 W/m2
13:15 53.7 °F 51.7 °F 29.65 in Calm   1 mph 93% 0.00 in 186 W/m2
13:20 53.7 °F 51.7 °F 29.65 in Calm     93% 0.00 in 195 W/m2
13:25 53.6 °F 51.6 °F 29.65 in Calm   1 mph 93% 0.00 in 111 W/m2
13:30 53.5 °F 51.5 °F 29.65 in Calm   2 mph 93% 0.00 in 186 W/m2
13:35 53.6 °F 51.6 °F 29.65 in West 1 mph 2 mph 93% 0.00 in 216 W/m2
13:40 53.7 °F 51.7 °F 29.66 in West 1 mph 1 mph 93% 0.00 in 248 W/m2
13:45 53.9 °F 52.2 °F 29.66 in Calm   1 mph 94% 0.00 in 255 W/m2
13:50 54 °F 52 °F 29.66 in Calm     93% 0.00 in 260 W/m2
13:55 54.2 °F 52.2 °F 29.66 in West 1 mph 1 mph 93% 0.00 in 276 W/m2
14:00 54.3 °F 52.3 °F 29.66 in West 1 mph 1 mph 93% 0.00 in 288 W/m2
14:05 54.4 °F 52.4 °F 29.66 in West 1 mph 1 mph 93% 0.00 in 220 W/m2
14:10 54.4 °F 52.4 °F 29.67 in West 1 mph 1 mph 93% 0.00 in 227 W/m2
14:15 54.5 °F 52.5 °F 29.67 in West 1 mph 2 mph 93% 0.00 in 176 W/m2
14:20 54.5 °F 52.5 °F 29.67 in NNE 1 mph 1 mph 93% 0.00 in 176 W/m2
14:25 54.4 °F 52.1 °F 29.67 in North 1 mph 1 mph 92% 0.00 in 188 W/m2
14:30 54.3 °F 52 °F 29.67 in North 1 mph 2 mph 92% 0.00 in 213 W/m2
14:35 54.3 °F 52 °F 29.67 in NNW 2 mph 2 mph 92% 0.00 in 229 W/m2
14:40 54.2 °F 51.9 °F 29.68 in NNW 1 mph 1 mph 92% 0.00 in 172 W/m2
14:45 54.1 °F 51.5 °F 29.67 in NNW 1 mph 1 mph 91% 0.00 in 200 W/m2
14:50 53.9 °F 51.3 °F 29.68 in NNW 1 mph 3 mph 91% 0.00 in 229 W/m2
14:55 53.5 °F 50.9 °F 29.68 in NNW 2 mph 3 mph 91% 0.00 in 258 W/m2
15:00 53.3 °F 50.4 °F 29.67 in North 2 mph 2 mph 90% 0.00 in 213 W/m2
15:05 53.3 °F 50.4 °F 29.67 in North 2 mph 3 mph 90% 0.00 in 220 W/m2
15:10 53.3 °F 50.1 °F 29.67 in North 2 mph 2 mph 89% 0.00 in 195 W/m2
15:15 53.3 °F 50.1 °F 29.67 in North 2 mph 2 mph 89% 0.00 in 163 W/m2
15:20 53.1 °F 49.6 °F 29.68 in NNW 2 mph 4 mph 88% 0.00 in 118 W/m2
15:25 53.1 °F 49.6 °F 29.69 in North 2 mph 4 mph 88% 0.00 in 111 W/m2
15:30 53.1 °F 49.6 °F 29.69 in NNW 2 mph 2 mph 88% 0.00 in 116 W/m2
15:35 53 °F 49.5 °F 29.69 in NNW 2 mph 2 mph 88% 0.00 in 134 W/m2
15:40 52.9 °F 49.4 °F 29.69 in NW 2 mph 2 mph 88% 0.00 in 132 W/m2
15:45 52.9 °F 49.4 °F 29.70 in NNW 2 mph 3 mph 88% 0.00 in 128 W/m2
15:50 52.9 °F 49.4 °F 29.70 in NNW 2 mph 2 mph 88% 0.00 in 98 W/m2
15:55 52.9 °F 49.4 °F 29.70 in NNW 1 mph 2 mph 88% 0.00 in 98 W/m2
16:00 52.8 °F 49.3 °F 29.70 in NNW 1 mph 1 mph 88% 0.00 in 93 W/m2
16:05 52.7 °F 48.9 °F 29.70 in NNW 1 mph 1 mph 87% 0.00 in 83 W/m2
16:10 52.5 °F 48.7 °F 29.70 in NNW 1 mph 2 mph 87% 0.00 in 97 W/m2
16:15 52.4 °F 48.6 °F 29.70 in NNW 1 mph 2 mph 87% 0.00 in 95 W/m2
16:20 52.2 °F 48.4 °F 29.70 in ENE 1 mph 1 mph 87% 0.00 in 86 W/m2
16:25 52 °F 48.3 °F 29.70 in ENE 1 mph 1 mph 87% 0.00 in 81 W/m2
16:30 51.9 °F 48.2 °F 29.71 in NE 1 mph 1 mph 87% 0.00 in 74 W/m2
16:35 51.8 °F 48.1 °F 29.70 in Calm   1 mph 87% 0.00 in 79 W/m2
16:40 51.7 °F 48 °F 29.70 in Calm     87% 0.00 in 69 W/m2
16:45 51.6 °F 47.9 °F 29.70 in Calm   1 mph 87% 0.00 in 77 W/m2
16:50 51.6 °F 47.9 °F 29.70 in NE 1 mph 1 mph 87% 0.00 in 79 W/m2
16:55 51.5 °F 47.8 °F 29.71 in NE 1 mph 2 mph 87% 0.00 in 70 W/m2
17:00 51.5 °F 48.1 °F 29.71 in NE 1 mph 1 mph 88% 0.00 in 56 W/m2
17:05 51.4 °F 48 °F 29.71 in NE 1 mph 1 mph 88% 0.00 in 56 W/m2
17:10 51.3 °F 47.9 °F 29.71 in North 1 mph 1 mph 88% 0.00 in 53 W/m2
17:15 51.2 °F 47.8 °F 29.71 in North 1 mph 2 mph 88% 0.00 in 51 W/m2
17:20 51.2 °F 47.5 °F 29.71 in North 1 mph 2 mph 87% 0.00 in 46 W/m2
17:25 51.1 °F 47.4 °F 29.72 in North 1 mph 2 mph 87% 0.00 in 47 W/m2
17:30 51.1 °F 47.4 °F 29.72 in North 1 mph 1 mph 87% 0.00 in 44 W/m2
17:35 51 °F 47.3 °F 29.73 in North 1 mph 2 mph 87% 0.00 in 39 W/m2
17:40 50.9 °F 47.2 °F 29.73 in North 1 mph 1 mph 87% 0.00 in 40 W/m2
17:45 50.7 °F 47 °F 29.73 in North 1 mph 2 mph 87% 0.00 in 49 W/m2
17:50 50.6 °F 46.9 °F 29.73 in NNE 1 mph 1 mph 87% 0.00 in 49 W/m2
17:55 50.5 °F 47.1 °F 29.73 in NNE 1 mph 1 mph 88% 0.00 in 51 W/m2
18:00 50.4 °F 46.7 °F 29.73 in NE 1 mph 3 mph 87% 0.00 in 49 W/m2
18:05 50.2 °F 46.5 °F 29.74 in NNE 2 mph 3 mph 87% 0.00 in 42 W/m2
18:10 50.1 °F 46.4 °F 29.74 in NNE 1 mph 1 mph 87% 0.00 in 39 W/m2
18:15 50 °F 46.3 °F 29.74 in East 1 mph 1 mph 87% 0.00 in 40 W/m2
18:20 49.9 °F 45.9 °F 29.74 in ENE 2 mph 2 mph 86% 0.00 in 40 W/m2
18:25 49.8 °F 45.8 °F 29.75 in ENE 2 mph 2 mph 86% 0.00 in 37 W/m2
18:30 49.7 °F 45.7 °F 29.75 in ENE 2 mph 3 mph 86% 0.00 in 33 W/m2
18:35 49.6 °F 45.6 °F 29.75 in ENE 2 mph 3 mph 86% 0.00 in 32 W/m2
18:40 49.6 °F 45.6 °F 29.75 in East 1 mph 1 mph 86% 0.00 in 32 W/m2
18:45 49.5 °F 45.5 °F 29.75 in NE 1 mph 2 mph 86% 0.00 in 32 W/m2
18:50 49.3 °F 45.3 °F 29.75 in NE 1 mph 1 mph 86% 0.00 in 25 W/m2
18:55 49.2 °F 45.2 °F 29.75 in NNE 1 mph 1 mph 86% 0.00 in 23 W/m2
19:00 49.1 °F 45.4 °F 29.75 in NNE 1 mph 1 mph 87% 0.00 in 28 W/m2
19:05 49.1 °F 45.4 °F 29.75 in NNE 1 mph 1 mph 87% 0.00 in 32 W/m2
19:10 49.1 °F 45.4 °F 29.76 in NNE 1 mph 1 mph 87% 0.00 in 30 W/m2
19:15 49.1 °F 45.4 °F 29.75 in NNE 1 mph 1 mph 87% 0.00 in 23 W/m2
19:20 49 °F 45.6 °F 29.76 in NNE 1 mph 1 mph 88% 0.00 in 16 W/m2
19:25 49.1 °F 45.7 °F 29.76 in NNE 1 mph 1 mph 88% 0.00 in 16 W/m2
19:30 49 °F 45.6 °F 29.76 in NNW 1 mph 1 mph 88% 0.00 in 18 W/m2
19:35 49 °F 45.6 °F 29.76 in NNW 1 mph 2 mph 88% 0.00 in 14 W/m2
19:40 49 °F 45.6 °F 29.76 in NNW 1 mph 1 mph 88% 0.00 in 16 W/m2
19:45 49 °F 45.6 °F 29.77 in NNW 1 mph 1 mph 88% 0.00 in 12 W/m2
19:50 48.9 °F 45.5 °F 29.77 in NNW 1 mph 1 mph 88% 0.00 in 12 W/m2
19:55 48.8 °F 45.4 °F 29.77 in NNW 1 mph 1 mph 88% 0.00 in 9 W/m2
20:00 48.8 °F 45.4 °F 29.77 in North 1 mph 1 mph 88% 0.00 in 9 W/m2
20:05 48.7 °F 45.3 °F 29.77 in North 1 mph 1 mph 88% 0.00 in 11 W/m2
20:10 48.6 °F 45.2 °F 29.77 in Calm   1 mph 88% 0.00 in 14 W/m2
20:15 48.5 °F 45.1 °F 29.77 in North 1 mph 1 mph 88% 0.00 in 23 W/m2
20:20 48.4 °F 45 °F 29.77 in Calm   1 mph 88% 0.00 in 19 W/m2
20:25 48.4 °F 45 °F 29.77 in Calm   1 mph 88% 0.00 in 16 W/m2
20:30 48.4 °F 44.7 °F 29.77 in Calm     87% 0.00 in 12 W/m2
20:35 48.3 °F 44.9 °F 29.77 in Calm     88% 0.00 in 9 W/m2
20:40 48.3 °F 44.9 °F 29.78 in Calm     88% 0.00 in 7 W/m2
20:45 48.3 °F 44.9 °F 29.78 in Calm     88% 0.00 in 5 W/m2
20:50 48.2 °F 44.8 °F 29.78 in Calm     88% 0.00 in 0 W/m2
20:55 48.2 °F 44.8 °F 29.77 in Calm     88% 0.00 in 0 W/m2
21:00 48.2 °F 44.8 °F 29.77 in Calm     88% 0.00 in 0 W/m2
21:05 48.2 °F 44.8 °F 29.78 in Calm     88% 0.00 in 0 W/m2
21:10 48.2 °F 44.8 °F 29.78 in Calm   1 mph 88% 0.00 in 0 W/m2
21:15 48.2 °F 44.8 °F 29.78 in NNW 1 mph 1 mph 88% 0.00 in 0 W/m2
21:20 48.3 °F 44.9 °F 29.79 in NW 2 mph 2 mph 88% 0.00 in 0 W/m2
21:25 48.4 °F 45.3 °F 29.79 in NW 2 mph 2 mph 89% 0.00 in 0 W/m2
21:30 48.5 °F 45.4 °F 29.79 in NW 2 mph 3 mph 89% 0.00 in 0 W/m2
21:35 48.8 °F 45.7 °F 29.79 in NNW 3 mph 6 mph 89% 0.00 in 0 W/m2
21:40 49 °F 45.6 °F 29.79 in NNW 5 mph 9 mph 88% 0.00 in 0 W/m2
21:45 49.2 °F 45.8 °F 29.79 in NW 6 mph 9 mph 88% 0.00 in 0 W/m2
21:50 49.3 °F 45.6 °F 29.79 in NW 5 mph 5 mph 87% 0.00 in 0 W/m2
21:55 49.4 °F 45.4 °F 29.79 in WNW 4 mph 5 mph 86% 0.00 in 0 W/m2
22:00 49.5 °F 45.5 °F 29.79 in NNW 5 mph 5 mph 86% 0.00 in 0 W/m2
22:05 49.6 °F 45.3 °F 29.79 in WNW 5 mph 5 mph 85% 0.00 in 0 W/m2
22:10 49.6 °F 45.3 °F 29.79 in NNW 5 mph 5 mph 85% 0.00 in 0 W/m2
22:15 49.6 °F 45.3 °F 29.80 in West 6 mph 6 mph 85% 0.00 in 0 W/m2
22:20 49.7 °F 45.4 °F 29.79 in NNW 6 mph 8 mph 85% 0.00 in 0 W/m2
22:25 49.7 °F 45.1 °F 29.79 in NW 7 mph 10 mph 84% 0.00 in 0 W/m2
22:30 49.6 °F 44.6 °F 29.80 in WSW 8 mph 8 mph 83% 0.00 in 0 W/m2
22:35 49.5 °F 44.6 °F 29.80 in WNW 8 mph 10 mph 83% 0.00 in 0 W/m2
22:40 49.5 °F 44.2 °F 29.79 in WNW 8 mph 8 mph 82% 0.00 in 0 W/m2
22:45 49.4 °F 44.1 °F 29.79 in North 8 mph 9 mph 82% 0.00 in 0 W/m2
22:50 49.3 °F 44 °F 29.79 in North 9 mph 9 mph 82% 0.00 in 0 W/m2
22:55 49.3 °F 44 °F 29.80 in West 8 mph 9 mph 82% 0.00 in 0 W/m2
23:00 49.2 °F 43.9 °F 29.80 in WNW 6 mph 9 mph 82% 0.00 in 0 W/m2
23:05 49.1 °F 43.8 °F 29.80 in NNW 6 mph 9 mph 82% 0.00 in 0 W/m2
23:10 49 °F 43.7 °F 29.80 in NW 5 mph 5 mph 82% 0.00 in 0 W/m2
23:15 48.9 °F 43.6 °F 29.80 in West 5 mph 5 mph 82% 0.00 in 0 W/m2
23:20 48.9 °F 43.6 °F 29.81 in NW 5 mph 5 mph 82% 0.00 in 0 W/m2
23:25 48.9 °F 43.3 °F 29.81 in West 5 mph 5 mph 81% 0.00 in 0 W/m2
23:30 48.8 °F 43.2 °F 29.81 in NNW 5 mph 10 mph 81% 0.00 in 0 W/m2
23:35 48.8 °F 43.2 °F 29.82 in NNW 7 mph 10 mph 81% 0.00 in 0 W/m2
23:40 48.7 °F 42.8 °F 29.82 in WNW 7 mph 7 mph 80% 0.00 in 0 W/m2
23:45 48.7 °F 42.8 °F 29.82 in NNW 6 mph 8 mph 80% 0.00 in 0 W/m2
23:50 48.6 °F 42.7 °F 29.82 in North 6 mph 6 mph 80% 0.00 in 0 W/m2
23:55 48.5 °F 42.6 °F 29.82 in NW 7 mph 7 mph 80% 0.00 in 0 W/m2
Sand Point, Michigan, USA
Compliments of Weather Underground - 2 mb